Time;durP1;ratioP1;P1;durP2;ratioP2;P2;SDS_P1;SDS_P2;PMS_P1;PMS_P2;Temp;Humidity;BMP_temperature;BMP_pressure;BME280_temperature;BME280_humidity;BME280_pressure;Samples;Min_cycle;Max_cycle;Signal;HPM_P1;HPM_P2
2023/08/27 00:00:21;;;;;;;20.98;13.93;;;;;;;31.09;49.34;97471.28;4488291;31;20104;-84
2023/08/27 00:02:48;;;;;;;19.73;14.20;;;;;;;30.95;49.88;97472.34;4487119;32;20124;-84
2023/08/27 00:05:15;;;;;;;20.10;14.70;;;;;;;30.90;49.71;97458.81;4488247;31;20092;-84
2023/08/27 00:07:42;;;;;;;18.98;14.40;;;;;;;30.59;50.87;97472.75;4488212;32;20115;-84
2023/08/27 00:10:10;;;;;;;21.30;14.35;;;;;;;30.75;50.46;97473.19;4488316;32;20111;-84
2023/08/27 00:12:37;;;;;;;21.75;14.50;;;;;;;31.22;49.25;97471.25;4486979;31;20112;-84
2023/08/27 00:15:05;;;;;;;21.10;15.60;;;;;;;30.64;50.75;97473.81;4488341;31;20080;-84
2023/08/27 00:17:32;;;;;;;20.95;14.73;;;;;;;30.63;50.55;97482.00;4486940;32;20084;-84
2023/08/27 00:20:00;;;;;;;19.35;15.13;;;;;;;30.98;49.68;97461.25;4474283;32;20120;-84
2023/08/27 00:22:27;;;;;;;18.75;13.85;;;;;;;30.73;50.27;97461.09;4488161;31;20131;-84
2023/08/27 00:24:54;;;;;;;19.75;14.15;;;;;;;31.09;49.31;97474.75;4486188;32;20088;-84
2023/08/27 00:27:21;;;;;;;22.95;13.80;;;;;;;30.44;50.95;97481.78;4488211;31;20092;-84
2023/08/27 00:29:48;;;;;;;21.83;14.75;;;;;;;30.48;51.10;97474.19;4486852;32;20590;-84
2023/08/27 00:32:15;;;;;;;22.95;15.15;;;;;;;30.45;51.01;97486.09;4487019;31;20101;-84
2023/08/27 00:34:51;;;;;;;20.70;14.57;;;;;;;30.36;51.37;97486.50;4487008;32;20163;-84
2023/08/27 00:37:18;;;;;;;20.80;14.70;;;;;;;29.15;54.91;97490.81;4488099;31;20140;-84
2023/08/27 00:39:45;;;;;;;22.55;14.52;;;;;;;30.03;52.29;97483.78;4487911;32;20116;-84
2023/08/27 00:42:12;;;;;;;20.67;14.73;;;;;;;30.34;51.63;97494.69;4486772;31;20451;-84
2023/08/27 00:44:39;;;;;;;23.48;14.65;;;;;;;30.22;51.71;97481.16;4488039;31;20438;-84
2023/08/27 00:47:07;;;;;;;18.37;13.73;;;;;;;29.99;52.99;97479.84;4487847;32;20096;-84
2023/08/27 00:49:34;;;;;;;21.95;13.70;;;;;;;29.70;54.93;97481.84;4486753;32;20139;-84
2023/08/27 00:52:01;;;;;;;20.50;14.00;;;;;;;29.32;56.66;97478.81;4488033;32;20497;-84
2023/08/27 00:54:29;;;;;;;24.50;13.90;;;;;;;29.93;55.61;97481.50;4486797;32;20111;-84
2023/08/27 00:56:56;;;;;;;22.15;14.13;;;;;;;29.45;56.95;97494.81;4486741;32;20080;-84
2023/08/27 00:59:23;;;;;;;21.10;12.93;;;;;;;29.04;58.71;97495.66;4486871;32;20138;-84
2023/08/27 01:01:51;;;;;;;17.65;12.18;;;;;;;29.13;58.97;97509.56;4488067;31;20191;-84
2023/08/27 01:04:18;;;;;;;18.50;11.70;;;;;;;28.73;61.09;97511.16;4486643;32;20145;-83
2023/08/27 01:06:45;;;;;;;17.67;12.37;;;;;;;28.70;61.00;97509.66;4487850;31;20080;-84
2023/08/27 01:09:15;;;;;;;18.00;11.63;;;;;;;27.43;67.23;97518.31;4487887;32;20147;-84
2023/08/27 01:12:08;;;;;;;16.92;11.18;;;;;;;27.48;67.65;97519.44;4487837;31;20124;-84
2023/08/27 01:14:36;;;;;;;15.80;8.35;;;;;;;27.50;66.61;97516.59;4486746;32;20158;-84
2023/08/27 01:17:05;;;;;;;15.32;8.25;;;;;;;26.77;68.65;97526.13;4486559;32;20072;-84
2023/08/27 01:19:33;;;;;;;20.98;7.20;;;;;;;26.18;69.98;97521.50;4486753;32;20108;-84
2023/08/27 01:22:00;;;;;;;12.30;6.20;;;;;;;26.96;65.39;97528.25;4487779;31;20103;-84
2023/08/27 01:24:27;;;;;;;10.18;5.00;;;;;;;27.00;63.73;97542.78;4487769;31;20143;-84
2023/08/27 01:26:57;;;;;;;11.57;4.62;;;;;;;26.42;65.51;97532.91;4486647;32;20076;-84
2023/08/27 01:29:35;;;;;;;10.95;4.80;;;;;;;26.33;64.87;97534.75;4487597;31;20144;-84
2023/08/27 01:32:01;;;;;;;9.65;4.00;;;;;;;27.13;61.45;97539.56;4487728;31;20092;-84
2023/08/27 01:34:29;;;;;;;12.73;4.22;;;;;;;27.36;59.60;97536.81;4486612;32;20096;-84
2023/08/27 01:36:57;;;;;;;9.02;3.65;;;;;;;27.47;58.71;97538.16;4486574;32;20439;-84
2023/08/27 01:39:24;;;;;;;12.52;3.70;;;;;;;26.55;61.76;97529.66;4486025;32;20155;-84
2023/08/27 01:41:51;;;;;;;8.35;3.60;;;;;;;26.15;62.88;97521.00;4486496;31;20105;-84
2023/08/27 01:44:19;;;;;;;9.05;3.62;;;;;;;25.30;66.48;97519.13;4487651;32;20092;-84
2023/08/27 01:46:46;;;;;;;8.70;3.67;;;;;;;25.39;66.15;97533.13;4486297;32;20144;-84
2023/08/27 01:49:13;;;;;;;7.65;3.42;;;;;;;24.87;68.92;97517.72;4487537;31;20096;-84
2023/08/27 01:51:40;;;;;;;9.75;3.30;;;;;;;25.13;67.78;97509.63;4486447;31;20169;-84
2023/08/27 01:54:08;;;;;;;8.13;3.67;;;;;;;25.49;66.53;97517.06;4486318;32;20084;-84
2023/08/27 01:56:35;;;;;;;11.30;4.20;;;;;;;25.33;67.21;97520.62;4486250;32;20085;-84
2023/08/27 01:59:02;;;;;;;9.05;3.72;;;;;;;24.87;69.69;97522.19;4486382;32;20733;-84
2023/08/27 02:01:29;;;;;;;8.45;3.60;;;;;;;25.78;65.88;97512.00;4486365;32;20180;-84
2023/08/27 02:03:57;;;;;;;9.07;3.92;;;;;;;25.56;66.43;97524.13;4486308;32;20451;-84
2023/08/27 02:06:24;;;;;;;11.60;4.68;;;;;;;25.93;64.17;97507.59;4486273;32;20093;-84
2023/08/27 02:08:50;;;;;;;9.70;3.83;;;;;;;24.91;70.32;97516.41;4487388;31;20118;-84
2023/08/27 02:11:17;;;;;;;9.15;3.42;;;;;;;25.03;69.53;97514.28;4473297;31;20112;-84
2023/08/27 02:13:44;;;;;;;9.65;3.65;;;;;;;25.09;68.94;97518.84;4487455;32;20497;-84
2023/08/27 02:16:11;;;;;;;9.32;3.47;;;;;;;24.01;73.94;97518.22;4487405;32;20099;-84
2023/08/27 02:18:38;;;;;;;8.85;3.53;;;;;;;24.38;71.38;97511.69;4487471;31;20157;-84
2023/08/27 02:21:05;;;;;;;7.15;3.12;;;;;;;24.63;69.63;97510.69;4487417;31;20570;-84
2023/08/27 02:23:32;;;;;;;6.40;3.03;;;;;;;25.11;67.07;97505.53;4487246;31;20098;-84
2023/08/27 02:25:59;;;;;;;7.85;3.22;;;;;;;24.31;70.30;97511.53;4486194;32;20125;-84
2023/08/27 02:28:27;;;;;;;7.20;3.05;;;;;;;24.72;68.96;97511.50;4472989;32;20368;-84
2023/08/27 02:30:55;;;;;;;7.03;3.00;;;;;;;24.37;70.26;97517.97;4486142;32;20118;-83
2023/08/27 02:33:22;;;;;;;5.93;2.60;;;;;;;24.02;71.64;97517.22;4473059;32;20084;-84
2023/08/27 02:35:49;;;;;;;6.93;2.62;;;;;;;24.00;70.71;97518.38;4487125;32;20152;-83
2023/08/27 02:38:18;;;;;;;4.65;2.08;;;;;;;24.46;67.25;97493.25;4472894;32;20459;-84
2023/08/27 02:40:45;;;;;;;6.18;2.80;;;;;;;24.23;67.67;97507.03;4487235;32;20422;-84
2023/08/27 02:43:12;;;;;;;4.50;1.92;;;;;;;24.20;66.74;97509.19;4487105;31;20092;-84
2023/08/27 02:45:40;;;;;;;7.43;2.20;;;;;;;24.19;66.79;97515.44;4486925;32;20478;-84
2023/08/27 02:48:07;;;;;;;6.47;2.40;;;;;;;24.12;67.07;97507.38;4486475;31;20391;-84
2023/08/27 02:50:34;;;;;;;7.65;2.20;;;;;;;24.69;64.97;97525.03;4485692;32;20510;-84
2023/08/27 02:53:01;;;;;;;3.70;1.73;;;;;;;24.11;66.87;97520.72;4486852;31;20102;-84
2023/08/27 02:55:28;;;;;;;4.32;1.90;;;;;;;24.25;66.39;97504.25;4487051;31;20089;-83
2023/08/27 02:57:55;;;;;;;5.65;1.85;;;;;;;24.67;64.29;97522.56;4486988;31;20145;-84
2023/08/27 03:00:22;;;;;;;4.53;1.95;;;;;;;24.66;64.60;97525.34;4485622;32;20461;-84
2023/08/27 03:02:49;;;;;;;6.18;1.85;;;;;;;24.42;64.40;97521.75;4485506;32;20411;-84
2023/08/27 03:05:17;;;;;;;4.30;1.92;;;;;;;25.32;60.63;97522.44;4485605;32;20153;-84
2023/08/27 03:07:44;;;;;;;5.40;2.08;;;;;;;24.74;62.91;97515.63;4486903;31;20442;-84
2023/08/27 03:10:13;;;;;;;4.28;2.03;;;;;;;25.67;59.38;97526.41;4485517;32;20143;-84
2023/08/27 03:12:40;;;;;;;5.80;1.95;;;;;;;25.45;60.15;97527.16;4485403;32;20471;-84
2023/08/27 03:15:07;;;;;;;3.85;1.73;;;;;;;25.85;58.15;97523.53;4485412;32;20502;-84
2023/08/27 03:17:34;;;;;;;5.12;2.00;;;;;;;25.58;58.87;97524.78;4485458;32;20119;-84
2023/08/27 03:20:02;;;;;;;4.45;1.95;;;;;;;25.82;57.82;97533.59;4486697;31;20080;-84
2023/08/27 03:22:29;;;;;;;4.97;1.90;;;;;;;24.70;62.30;97530.13;4472455;32;20127;-84
2023/08/27 03:24:56;;;;;;;5.90;1.87;;;;;;;24.62;62.69;97527.50;4485446;32;20427;-83
2023/08/27 03:27:23;;;;;;;5.87;1.90;;;;;;;24.55;63.36;97520.41;4486372;31;20115;-83
2023/08/27 03:29:50;;;;;;;5.05;2.05;;;;;;;23.81;66.14;97509.78;4485315;32;20139;-84
2023/08/27 03:32:17;;;;;;;5.95;2.05;;;;;;;23.98;65.78;97517.72;4485210;32;20106;-84
2023/08/27 03:34:44;;;;;;;4.85;1.90;;;;;;;25.27;60.68;97523.94;4485228;32;20103;-84
2023/08/27 03:37:11;;;;;;;4.85;2.10;;;;;;;25.33;60.11;97533.81;4486335;31;20453;-84
2023/08/27 03:39:38;;;;;;;3.28;1.75;;;;;;;25.43;59.51;97530.97;4486102;31;20367;-84
2023/08/27 03:42:05;;;;;;;5.90;2.10;;;;;;;25.28;59.70;97530.84;4486152;32;20123;-84
2023/08/27 03:44:33;;;;;;;5.45;2.10;;;;;;;25.72;58.37;97522.44;4486192;31;20155;-84
2023/08/27 03:47:00;;;;;;;4.37;2.00;;;;;;;25.84;58.04;97523.69;4484887;32;20205;-84
2023/08/27 03:49:27;;;;;;;5.15;1.87;;;;;;;26.67;54.88;97533.50;4486171;32;20151;-84
2023/08/27 03:51:54;;;;;;;4.68;2.00;;;;;;;26.71;54.70;97526.88;4486057;32;20411;-84
2023/08/27 03:54:20;;;;;;;4.85;2.20;;;;;;;26.72;54.38;97529.34;4485992;32;20102;-84
2023/08/27 03:56:48;;;;;;;6.45;2.17;;;;;;;26.93;53.99;97522.53;4485918;31;20115;-84
2023/08/27 03:59:15;;;;;;;4.87;2.12;;;;;;;26.84;53.67;97515.66;4487025;32;20553;-84
2023/08/27 04:01:42;;;;;;;5.10;1.90;;;;;;;27.43;52.22;97518.31;4487135;31;20096;-84
2023/08/27 04:04:09;;;;;;;4.00;1.92;;;;;;;26.91;53.50;97516.59;4487120;32;20156;-84
2023/08/27 04:06:36;;;;;;;4.82;2.00;;;;;;;27.08;53.20;97526.03;4488300;31;20165;-84
2023/08/27 04:09:04;;;;;;;4.07;2.15;;;;;;;26.25;55.68;97532.16;4487045;32;20490;-84
2023/08/27 04:11:31;;;;;;;5.00;1.95;;;;;;;26.09;55.70;97522.53;4474291;31;20180;-84
2023/08/27 04:13:58;;;;;;;6.62;2.25;;;;;;;25.77;57.09;97512.19;4487145;32;20084;-84
2023/08/27 04:16:25;;;;;;;5.85;2.55;;;;;;;25.12;59.39;97515.09;4487066;32;20104;-84
2023/08/27 04:18:52;;;;;;;6.15;2.30;;;;;;;24.71;60.79;97504.59;4474168;32;20168;-84
2023/08/27 04:21:19;;;;;;;6.12;2.20;;;;;;;25.04;59.94;97518.56;4473956;31;20104;-84
2023/08/27 04:23:46;;;;;;;5.75;2.42;;;;;;;25.03;60.33;97511.63;4487035;32;20148;-84
2023/08/27 04:26:13;;;;;;;7.57;2.28;;;;;;;25.54;58.92;97509.47;4486902;32;20165;-84
2023/08/27 04:28:40;;;;;;;4.68;2.10;;;;;;;26.13;57.04;97486.81;4488292;31;20088;-84
2023/08/27 04:31:07;;;;;;;4.87;2.20;;;;;;;26.28;56.80;97494.00;4488139;31;20103;-84
2023/08/27 04:33:34;;;;;;;7.80;2.40;;;;;;;26.23;56.52;97497.97;4488073;31;20102;-84
2023/08/27 04:36:01;;;;;;;5.30;2.20;;;;;;;26.73;55.22;97514.28;4486767;32;20431;-84
2023/08/27 04:38:28;;;;;;;5.72;2.20;;;;;;;27.58;52.55;97509.37;4473924;32;20104;-83
2023/08/27 04:40:55;;;;;;;7.03;2.22;;;;;;;27.56;51.93;97513.22;4488201;32;20111;-84
2023/08/27 04:43:22;;;;;;;11.32;3.30;;;;;;;26.96;53.67;97500.97;4487979;31;20108;-84
2023/08/27 04:45:49;;;;;;;4.75;2.05;;;;;;;27.90;51.12;97489.56;4487897;31;20124;-84
2023/08/27 04:48:16;;;;;;;5.68;2.33;;;;;;;27.85;51.68;97499.06;4488088;31;20487;-84
2023/08/27 04:50:45;;;;;;;7.85;2.30;;;;;;;28.11;51.05;97512.62;4487853;32;20119;-84
2023/08/27 04:53:12;;;;;;;4.45;2.30;;;;;;;27.91;51.92;97515.06;4486674;32;20160;-84
2023/08/27 04:55:40;;;;;;;5.95;2.42;;;;;;;28.19;50.57;97511.69;4486663;32;20105;-83
2023/08/27 04:58:08;;;;;;;8.75;2.33;;;;;;;28.06;50.69;97508.87;4487080;32;20159;-84
2023/08/27 05:00:35;;;;;;;7.35;2.30;;;;;;;28.48;49.82;97519.50;4486925;32;20088;-84
2023/08/27 05:03:02;;;;;;;4.37;2.20;;;;;;;28.51;50.16;97520.97;4486698;31;20141;-84
2023/08/27 05:05:30;;;;;;;5.93;2.22;;;;;;;28.63;49.34;97514.13;4486648;32;20105;-83
2023/08/27 05:07:57;;;;;;;6.57;2.20;;;;;;;28.35;49.83;97500.00;4487996;31;20359;-83
2023/08/27 05:10:24;;;;;;;7.80;2.60;;;;;;;28.52;49.63;97501.37;4487487;31;20441;-84
2023/08/27 05:12:51;;;;;;;7.05;2.17;;;;;;;28.56;50.22;97499.97;4486650;32;20081;-84
2023/08/27 05:15:20;;;;;;;5.87;2.50;;;;;;;29.23;49.02;97503.91;4487850;32;20112;-83
2023/08/27 05:17:48;;;;;;;5.37;2.10;;;;;;;29.74;47.64;97522.97;4473984;32;20164;-83
2023/08/27 05:20:15;;;;;;;5.68;2.40;;;;;;;30.41;45.65;97523.94;4487824;31;20097;-83
2023/08/27 05:22:42;;;;;;;5.87;2.37;;;;;;;30.76;45.04;97524.59;4487745;31;20145;-84
2023/08/27 05:25:09;;;;;;;6.57;2.03;;;;;;;31.10;43.70;97521.69;4486675;32;20131;-83
2023/08/27 05:27:43;;;;;;;2.62;1.60;;;;;;;31.92;41.72;97517.53;4487775;32;20084;-83
2023/08/27 05:30:16;;;;;;;6.62;2.50;;;;;;;32.40;40.96;97502.88;4486605;32;20084;-84
2023/08/27 05:32:43;;;;;;;5.55;2.05;;;;;;;33.14;39.66;97499.31;4487694;31;20106;-83
2023/08/27 05:35:11;;;;;;;5.55;2.10;;;;;;;33.51;38.77;97497.50;4487655;31;20142;-83
2023/08/27 05:37:38;;;;;;;4.62;1.85;;;;;;;33.60;38.83;97496.16;4486544;32;20387;-84
2023/08/27 05:40:06;;;;;;;5.50;1.98;;;;;;;34.27;37.03;97500.59;4486399;32;20158;-84
2023/08/27 05:42:33;;;;;;;5.18;2.22;;;;;;;34.93;35.78;97508.37;4487598;31;20110;-83
2023/08/27 05:45:00;;;;;;;5.47;1.92;;;;;;;35.62;34.41;97514.72;4473397;32;20131;-83
2023/08/27 05:47:27;;;;;;;4.15;2.10;;;;;;;35.59;34.38;97512.50;4487578;32;20148;-83
2023/08/27 05:49:54;;;;;;;2.90;1.80;;;;;;;35.53;34.17;97516.13;4487585;31;20103;-84
2023/08/27 05:52:21;;;;;;;5.35;2.10;;;;;;;35.91;33.44;97496.75;4487452;31;20140;-83
2023/08/27 05:54:48;;;;;;;3.95;1.77;;;;;;;36.00;33.70;97499.06;4487617;32;20152;-84
2023/08/27 05:57:15;;;;;;;3.70;2.12;;;;;;;35.25;34.82;97487.38;4487629;31;20110;-84
2023/08/27 05:59:42;;;;;;;4.78;1.90;;;;;;;35.35;34.95;97476.03;4487411;32;20506;-84
2023/08/27 06:02:13;;;;;;;6.32;2.10;;;;;;;35.63;35.01;97478.78;4486326;32;20088;-84
2023/08/27 06:04:40;;;;;;;4.53;2.10;;;;;;;34.68;35.87;97472.97;4487559;31;20171;-83
2023/08/27 06:07:08;;;;;;;4.40;2.20;;;;;;;35.01;35.28;97481.22;4487422;32;20135;-84
2023/08/27 06:09:35;;;;;;;4.85;2.10;;;;;;;35.78;34.13;97482.78;4487397;31;20160;-83
2023/08/27 06:12:02;;;;;;;5.60;2.33;;;;;;;36.14;33.31;97476.22;4487398;31;20151;-83
2023/08/27 06:14:29;;;;;;;6.22;2.17;;;;;;;34.97;35.34;97485.41;4487410;32;20126;-83
2023/08/27 06:16:56;;;;;;;5.75;2.12;;;;;;;34.47;36.38;97485.06;4487284;31;20110;-83
2023/08/27 06:19:23;;;;;;;5.68;2.40;;;;;;;34.68;36.67;97486.34;4487419;32;20119;-83
2023/08/27 06:21:58;;;;;;;3.60;2.20;;;;;;;34.21;36.76;97481.72;4486468;31;20154;-83
2023/08/27 06:24:25;;;;;;;3.17;2.00;;;;;;;33.56;37.85;97486.13;4487311;31;20106;-83
2023/08/27 06:26:53;;;;;;;5.80;2.50;;;;;;;32.99;39.20;97489.00;4487206;31;20579;-83
2023/08/27 06:29:20;;;;;;;7.07;2.83;;;;;;;33.85;37.76;97482.62;4487268;31;20163;-83
2023/08/27 06:31:47;;;;;;;6.50;2.35;;;;;;;34.32;37.49;97477.41;4487248;31;20084;-83
2023/08/27 06:34:14;;;;;;;7.22;2.97;;;;;;;33.60;37.97;97472.06;4487185;31;20100;-83
2023/08/27 06:36:40;;;;;;;5.68;2.58;;;;;;;33.67;38.10;97469.28;4487209;31;20104;-84
2023/08/27 06:39:07;;;;;;;5.87;2.67;;;;;;;34.80;36.52;97487.16;4482181;31;150055;-84
2023/08/27 06:41:34;;;;;;;5.47;2.70;;;;;;;34.13;37.63;97491.94;4487106;32;20123;-83
2023/08/27 06:44:01;;;;;;;5.32;2.42;;;;;;;33.88;37.45;97489.41;4487134;32;20431;-83
2023/08/27 06:46:28;;;;;;;8.43;2.78;;;;;;;34.90;36.90;97486.59;4487113;31;20724;-83
2023/08/27 06:48:56;;;;;;;7.45;2.78;;;;;;;35.82;34.92;97487.44;4487064;31;20104;-83
2023/08/27 06:51:23;;;;;;;7.60;2.70;;;;;;;36.80;33.65;97496.13;4485700;32;20853;-83
2023/08/27 06:53:50;;;;;;;7.80;2.80;;;;;;;36.66;33.79;97495.63;4486997;31;20499;-83
2023/08/27 06:56:18;;;;;;;4.68;2.45;;;;;;;36.60;33.46;97499.31;4487013;31;20482;-84
2023/08/27 06:58:45;;;;;;;6.85;2.87;;;;;;;36.32;34.22;97483.22;4486977;31;20084;-83
2023/08/27 07:01:12;;;;;;;7.40;3.05;;;;;;;35.69;36.18;97490.41;4485592;31;20076;-84
2023/08/27 07:03:39;;;;;;;5.43;3.10;;;;;;;35.59;36.36;97492.91;4486814;31;20150;-83
2023/08/27 07:06:06;;;;;;;6.62;2.90;;;;;;;34.71;37.18;97481.34;4486707;31;20415;-83
2023/08/27 07:08:33;;;;;;;6.45;3.10;;;;;;;34.27;37.82;97481.84;4487023;32;20126;-83
2023/08/27 07:11:00;;;;;;;6.80;3.17;;;;;;;33.76;38.79;97467.94;4486613;32;20128;-84
2023/08/27 07:13:27;;;;;;;7.18;3.12;;;;;;;33.64;38.86;97469.75;4486628;32;20152;-83
2023/08/27 07:15:54;;;;;;;6.55;3.20;;;;;;;33.27;39.91;97474.28;4486564;32;20107;-83
2023/08/27 07:18:21;;;;;;;7.72;3.20;;;;;;;33.29;39.84;97475.72;4485642;32;20494;-84
2023/08/27 07:20:48;;;;;;;6.53;3.00;;;;;;;33.11;40.78;97469.56;4486600;32;20147;-83
2023/08/27 07:23:16;;;;;;;7.80;3.28;;;;;;;33.60;40.34;97473.91;4486459;32;20131;-83
2023/08/27 07:25:43;;;;;;;6.80;3.20;;;;;;;33.30;40.53;97473.88;4486472;31;20147;-84
2023/08/27 07:28:10;;;;;;;8.40;3.87;;;;;;;33.09;41.26;97483.16;4485433;32;20447;-83
2023/08/27 07:30:37;;;;;;;7.97;3.50;;;;;;;33.15;41.60;97474.22;4486289;32;20486;-83
2023/08/27 07:33:06;;;;;;;9.05;4.00;;;;;;;34.58;38.51;97472.72;4487071;32;20152;-83
2023/08/27 07:35:33;;;;;;;8.32;3.25;;;;;;;34.15;38.53;97469.25;4488549;31;20108;-83
2023/08/27 07:38:00;;;;;;;8.20;3.75;;;;;;;34.71;38.23;97475.97;4488393;32;20171;-84
2023/08/27 07:40:28;;;;;;;6.55;3.25;;;;;;;35.17;37.35;97471.63;4488600;31;20441;-83
2023/08/27 07:42:54;;;;;;;8.40;3.53;;;;;;;35.23;37.33;97464.53;4487187;31;20119;-84
2023/08/27 07:45:22;;;;;;;7.53;3.62;;;;;;;34.55;38.69;97459.78;4488524;31;20084;-83
2023/08/27 07:47:49;;;;;;;7.90;3.12;;;;;;;34.72;38.42;97458.84;4488392;31;20435;-83
2023/08/27 07:50:16;;;;;;;7.53;3.37;;;;;;;36.08;36.37;97469.13;4488394;31;20458;-83
2023/08/27 07:52:43;;;;;;;8.23;3.40;;;;;;;35.71;35.73;97468.69;4474257;32;20560;-83
2023/08/27 07:55:10;;;;;;;6.85;3.60;;;;;;;35.58;35.21;97480.53;4488521;31;20101;-83
2023/08/27 07:57:37;;;;;;;8.02;3.67;;;;;;;35.57;36.30;97479.72;4487178;32;20107;-83
2023/08/27 08:00:04;;;;;;;7.55;3.65;;;;;;;35.43;37.22;97475.69;4488447;31;20449;-84
2023/08/27 08:02:31;;;;;;;9.15;3.75;;;;;;;36.16;35.75;97474.12;4487104;31;20132;-83
2023/08/27 08:04:58;;;;;;;7.43;3.90;;;;;;;36.00;35.31;97467.66;4487364;32;20537;-83
2023/08/27 08:07:25;;;;;;;10.55;4.00;;;;;;;36.55;34.77;97474.22;4474162;32;20080;-84
2023/08/27 08:09:52;;;;;;;9.85;3.85;;;;;;;37.07;34.52;97477.41;4488294;32;20135;-84
2023/08/27 08:12:20;;;;;;;7.50;3.97;;;;;;;37.02;32.75;97471.97;4486955;32;20163;-84
2023/08/27 08:14:47;;;;;;;7.85;4.00;;;;;;;36.47;33.72;97468.22;4487181;32;20477;-83
2023/08/27 08:17:14;;;;;;;8.00;4.15;;;;;;;36.48;33.50;97460.97;4488113;31;20104;-84
2023/08/27 08:19:41;;;;;;;8.10;4.03;;;;;;;36.03;35.12;97455.63;4487229;32;20120;-83
2023/08/27 08:22:08;;;;;;;8.55;4.50;;;;;;;36.60;34.43;97458.19;4488057;31;20141;-83
2023/08/27 08:24:35;;;;;;;10.02;4.03;;;;;;;35.54;35.96;97463.28;4488227;32;20096;-83
2023/08/27 08:27:02;;;;;;;7.28;3.92;;;;;;;35.57;36.48;97462.81;4487056;32;20127;-83
2023/08/27 08:29:35;;;;;;;10.02;4.00;;;;;;;35.03;38.19;97472.94;4488233;31;20106;-84
2023/08/27 08:32:02;;;;;;;10.90;4.37;;;;;;;36.19;36.17;97460.19;4487901;31;20515;-84
2023/08/27 08:34:29;;;;;;;8.50;4.37;;;;;;;35.44;36.12;97457.72;4487137;32;20136;-83
2023/08/27 08:36:56;;;;;;;8.10;3.97;;;;;;;33.90;38.93;97431.13;4486815;32;20096;-83
2023/08/27 08:39:24;;;;;;;9.05;4.65;;;;;;;35.07;37.22;97447.28;4487899;31;20155;-84
2023/08/27 08:42:06;;;;;;;8.02;4.28;;;;;;;34.41;38.06;97446.59;4473995;32;20379;-84
2023/08/27 08:45:00;;;;;;;11.27;4.72;;;;;;;35.02;36.09;97441.84;4486464;32;20188;-84
2023/08/27 08:47:28;;;;;;;11.15;4.65;;;;;;;35.30;36.78;97441.06;4486833;32;20163;-84
2023/08/27 08:49:55;;;;;;;9.95;4.43;;;;;;;35.39;36.87;97445.03;4473860;32;20103;-84
2023/08/27 08:52:25;;;;;;;9.52;4.10;;;;;;;35.57;36.35;97441.34;4487950;31;20084;-83
2023/08/27 08:54:54;;;;;;;8.52;4.28;;;;;;;35.89;35.80;97439.00;4488069;31;20481;-83
2023/08/27 08:57:23;;;;;;;10.13;4.57;;;;;;;35.93;35.89;97437.44;4473733;32;20458;-83
2023/08/27 08:59:51;;;;;;;8.77;4.50;;;;;;;35.74;35.91;97446.78;4486921;32;20150;-84
2023/08/27 09:02:18;;;;;;;9.60;5.07;;;;;;;35.86;35.63;97440.31;4486673;32;20119;-84
2023/08/27 09:04:46;;;;;;;10.85;4.85;;;;;;;36.34;34.22;97443.50;4487934;31;20110;-84
2023/08/27 09:07:14;;;;;;;11.77;4.70;;;;;;;36.47;33.76;97438.66;4486660;32;20088;-84
2023/08/27 09:09:41;;;;;;;9.55;5.07;;;;;;;36.37;34.34;97437.66;4473912;32;20146;-84
2023/08/27 09:12:08;;;;;;;9.73;5.57;;;;;;;35.50;35.48;97441.47;4487700;32;20115;-84
2023/08/27 09:14:36;;;;;;;9.18;4.78;;;;;;;35.71;35.29;97448.03;4486707;32;20119;-84
2023/08/27 09:17:05;;;;;;;8.93;4.80;;;;;;;36.46;33.47;97428.12;4486577;32;20176;-84
2023/08/27 09:19:32;;;;;;;12.23;5.40;;;;;;;36.90;33.64;97436.31;4473961;32;20102;-84
2023/08/27 09:21:59;;;;;;;10.27;5.65;;;;;;;37.45;33.56;97438.09;4486596;31;20118;-84
2023/08/27 09:24:26;;;;;;;9.85;5.28;;;;;;;36.72;34.20;97437.41;4487814;32;20131;-84
2023/08/27 09:26:53;;;;;;;10.02;5.20;;;;;;;36.76;34.45;97433.94;4486511;32;20160;-84
2023/08/27 09:29:20;;;;;;;11.05;5.65;;;;;;;37.24;33.26;97434.34;4487756;32;20435;-84
2023/08/27 09:31:48;;;;;;;10.60;5.35;;;;;;;36.93;33.78;97439.31;4486483;32;20105;-84
2023/08/27 09:34:16;;;;;;;12.85;5.65;;;;;;;36.74;33.62;97429.88;4486713;32;20176;-84
2023/08/27 09:36:43;;;;;;;12.23;5.97;;;;;;;37.64;32.64;97433.97;4486592;32;20103;-84
2023/08/27 09:39:13;;;;;;;11.73;5.40;;;;;;;37.05;32.68;97431.94;4473349;32;20124;-84
2023/08/27 09:41:42;;;;;;;11.23;5.55;;;;;;;37.88;32.34;97423.75;4487703;31;20104;-84
2023/08/27 09:44:09;;;;;;;9.35;5.12;;;;;;;38.26;33.14;97441.59;4487711;31;20088;-84
2023/08/27 09:46:37;;;;;;;8.68;4.62;;;;;;;38.53;31.50;97425.37;4486287;32;20516;-84
2023/08/27 09:49:06;;;;;;;11.73;5.20;;;;;;;37.62;32.88;97428.03;4486582;32;20099;-84
2023/08/27 09:51:38;;;;;;;10.25;5.12;;;;;;;37.76;33.04;97428.50;4487376;31;20112;-84
2023/08/27 09:54:15;;;;;;;10.77;5.37;;;;;;;37.99;31.63;97422.78;4473639;32;20171;-84
2023/08/27 09:56:47;;;;;;;9.20;4.93;;;;;;;37.43;32.42;97426.75;4485159;32;20551;-84
2023/08/27 09:59:16;;;;;;;10.50;5.10;;;;;;;38.07;31.72;97419.63;4473541;32;20092;-84
2023/08/27 10:01:47;;;;;;;12.18;5.28;;;;;;;37.62;32.95;97428.84;4486391;31;20115;-84
2023/08/27 10:04:14;;;;;;;11.35;5.00;;;;;;;37.16;34.09;97429.38;4486463;32;20108;-84
2023/08/27 10:06:42;;;;;;;9.02;4.80;;;;;;;37.75;33.53;97424.13;4487515;32;20089;-84
2023/08/27 10:09:09;;;;;;;10.23;4.85;;;;;;;37.35;33.65;97430.72;4486342;32;20434;-84
2023/08/27 10:11:36;;;;;;;8.80;5.05;;;;;;;37.99;33.38;97419.28;4486244;32;20159;-84
2023/08/27 10:14:04;;;;;;;10.80;4.93;;;;;;;37.74;33.52;97417.13;4487504;31;20152;-84
2023/08/27 10:16:34;;;;;;;11.43;5.28;;;;;;;38.32;31.93;97407.44;4486218;32;20768;-85
2023/08/27 10:19:03;;;;;;;10.88;5.22;;;;;;;37.91;32.05;97412.47;4486300;32;20148;-84
2023/08/27 10:21:32;;;;;;;9.88;5.10;;;;;;;37.78;33.28;97400.25;4486242;31;20096;-84
2023/08/27 10:24:00;;;;;;;11.50;5.12;;;;;;;36.69;34.23;97393.03;4486222;32;20130;-84
2023/08/27 10:26:28;;;;;;;12.43;5.20;;;;;;;38.05;33.81;97397.50;4486231;32;20122;-84
2023/08/27 10:28:55;;;;;;;10.45;5.12;;;;;;;37.87;34.09;97393.34;4486222;32;20072;-84
2023/08/27 10:31:22;;;;;;;11.32;5.97;;;;;;;38.70;30.68;97387.47;4485954;32;20142;-85
2023/08/27 10:33:50;;;;;;;11.60;6.18;;;;;;;38.14;31.49;97392.47;4487339;31;20096;-84
2023/08/27 10:36:23;;;;;;;13.68;6.20;;;;;;;37.73;30.79;97388.59;4487097;31;20175;-85
2023/08/27 10:38:53;;;;;;;11.60;5.95;;;;;;;37.72;30.62;97382.38;4485919;32;20102;-85
2023/08/27 10:41:25;;;;;;;10.45;5.78;;;;;;;37.50;32.32;97382.44;4485831;31;20378;-85
2023/08/27 10:43:53;;;;;;;12.68;6.05;;;;;;;37.44;33.09;97380.78;4487298;32;20153;-84
2023/08/27 10:46:24;;;;;;;11.25;6.50;;;;;;;37.13;32.35;97385.00;4487185;32;20123;-84
2023/08/27 10:48:52;;;;;;;13.15;6.45;;;;;;;37.24;31.29;97378.66;4487222;31;20120;-85
2023/08/27 10:51:23;;;;;;;10.85;6.65;;;;;;;37.28;31.45;97381.66;4486946;32;20092;-85
2023/08/27 10:53:50;;;;;;;13.65;6.80;;;;;;;36.78;32.97;97382.62;4485970;32;20115;-84
2023/08/27 10:56:35;;;;;;;11.82;6.45;;;;;;;36.94;32.52;97389.88;4486889;31;20143;-85
2023/08/27 10:59:03;;;;;;;12.45;6.00;;;;;;;37.79;31.03;97377.66;4485966;32;20499;-85
2023/08/27 11:02:07;;;;;;;10.80;6.57;;;;;;;37.46;31.46;97386.72;4486810;31;20104;-84
2023/08/27 11:04:36;;;;;;;12.93;6.80;;;;;;;37.79;31.35;97377.66;4486941;31;20345;-84
2023/08/27 11:07:15;;;;;;;12.57;6.80;;;;;;;37.68;30.52;97369.72;4485593;32;20093;-84
2023/08/27 11:09:56;;;;;;;11.48;7.18;;;;;;;37.47;31.00;97374.09;4487741;32;20122;-85
2023/08/27 11:12:24;;;;;;;12.35;6.43;;;;;;;37.78;30.69;97376.03;4488777;31;20100;-84
2023/08/27 11:14:53;;;;;;;11.15;6.32;;;;;;;37.59;31.47;97382.81;4487697;32;20119;-85
2023/08/27 11:17:28;;;;;;;11.95;6.72;;;;;;;37.73;32.66;97375.12;4487434;32;20088;-85
2023/08/27 11:19:57;;;;;;;12.82;7.05;;;;;;;37.53;30.45;97368.47;4474648;32;20080;-85
2023/08/27 11:22:24;;;;;;;14.55;6.90;;;;;;;38.22;30.26;97369.66;4487317;31;20161;-84
2023/08/27 11:24:56;;;;;;;12.23;6.87;;;;;;;38.73;30.95;97368.91;4474507;32;20104;-85
2023/08/27 11:27:25;;;;;;;12.40;7.45;;;;;;;38.45;30.86;97372.78;4487332;32;20095;-85
2023/08/27 11:29:55;;;;;;;13.13;6.93;;;;;;;38.45;29.90;97372.78;4487625;32;20734;-85
2023/08/27 11:32:22;;;;;;;13.20;6.68;;;;;;;38.67;30.31;97371.84;4488427;31;20106;-85